sensor_id;sensor_type;location;lat;lon;timestamp;temperature;humidity
61641;HTU21D;62201;49.966;8.342;2024-01-07T00:00:03;4.86;104.09
61641;HTU21D;62201;49.966;8.342;2024-01-07T00:02:28;4.87;104.21
61641;HTU21D;62201;49.966;8.342;2024-01-07T00:04:55;4.90;104.24
61641;HTU21D;62201;49.966;8.342;2024-01-07T00:07:21;4.90;104.08
61641;HTU21D;62201;49.966;8.342;2024-01-07T00:09:46;4.89;104.29
61641;HTU21D;62201;49.966;8.342;2024-01-07T00:12:12;4.89;104.05
61641;HTU21D;62201;49.966;8.342;2024-01-07T00:14:37;4.87;104.36
61641;HTU21D;62201;49.966;8.342;2024-01-07T00:17:03;4.84;104.09
61641;HTU21D;62201;49.966;8.342;2024-01-07T00:19:28;4.87;104.05
61641;HTU21D;62201;49.966;8.342;2024-01-07T00:21:56;4.84;104.40
61641;HTU21D;62201;49.966;8.342;2024-01-07T00:24:21;4.84;104.48
61641;HTU21D;62201;49.966;8.342;2024-01-07T00:26:46;4.86;104.57
61641;HTU21D;62201;49.966;8.342;2024-01-07T00:29:12;4.86;104.64
61641;HTU21D;62201;49.966;8.342;2024-01-07T00:31:37;4.88;104.68
61641;HTU21D;62201;49.966;8.342;2024-01-07T00:34:03;4.88;104.78
61641;HTU21D;62201;49.966;8.342;2024-01-07T00:36:28;4.87;104.92
61641;HTU21D;62201;49.966;8.342;2024-01-07T00:38:53;4.87;104.77
61641;HTU21D;62201;49.966;8.342;2024-01-07T00:41:19;4.89;104.63
61641;HTU21D;62201;49.966;8.342;2024-01-07T00:43:44;4.93;104.93
61641;HTU21D;62201;49.966;8.342;2024-01-07T00:46:09;4.94;104.66
61641;HTU21D;62201;49.966;8.342;2024-01-07T00:48:34;4.94;104.91
61641;HTU21D;62201;49.966;8.342;2024-01-07T00:51:00;4.95;105.09
61641;HTU21D;62201;49.966;8.342;2024-01-07T00:53:25;5.02;105.24
61641;HTU21D;62201;49.966;8.342;2024-01-07T00:55:51;5.01;104.65
61641;HTU21D;62201;49.966;8.342;2024-01-07T00:58:16;5.00;104.82
61641;HTU21D;62201;49.966;8.342;2024-01-07T01:00:42;5.03;105.08
61641;HTU21D;62201;49.966;8.342;2024-01-07T01:03:07;5.02;105.07
61641;HTU21D;62201;49.966;8.342;2024-01-07T01:05:32;5.04;105.25
61641;HTU21D;62201;49.966;8.342;2024-01-07T01:07:58;5.05;105.11
61641;HTU21D;62201;49.966;8.342;2024-01-07T01:10:23;5.03;105.21
61641;HTU21D;62201;49.966;8.342;2024-01-07T01:12:49;5.06;105.51
61641;HTU21D;62201;49.966;8.342;2024-01-07T01:15:14;5.03;104.84
61641;HTU21D;62201;49.966;8.342;2024-01-07T01:17:42;5.03;105.24
61641;HTU21D;62201;49.966;8.342;2024-01-07T01:20:08;5.05;105.57
61641;HTU21D;62201;49.966;8.342;2024-01-07T01:22:33;5.02;105.34
61641;HTU21D;62201;49.966;8.342;2024-01-07T01:24:58;5.04;105.52
61641;HTU21D;62201;49.966;8.342;2024-01-07T01:27:25;5.03;105.25
61641;HTU21D;62201;49.966;8.342;2024-01-07T01:29:50;5.04;105.41
61641;HTU21D;62201;49.966;8.342;2024-01-07T01:32:16;5.01;105.02
61641;HTU21D;62201;49.966;8.342;2024-01-07T01:34:41;5.02;105.30
61641;HTU21D;62201;49.966;8.342;2024-01-07T01:37:08;5.03;105.43
61641;HTU21D;62201;49.966;8.342;2024-01-07T01:39:34;4.98;105.40
61641;HTU21D;62201;49.966;8.342;2024-01-07T01:41:59;5.01;105.42
61641;HTU21D;62201;49.966;8.342;2024-01-07T01:44:24;4.98;104.89
61641;HTU21D;62201;49.966;8.342;2024-01-07T01:46:52;5.00;105.21
61641;HTU21D;62201;49.966;8.342;2024-01-07T01:49:17;4.96;105.26
61641;HTU21D;62201;49.966;8.342;2024-01-07T01:51:43;4.97;105.40
61641;HTU21D;62201;49.966;8.342;2024-01-07T01:54:08;4.95;105.07
61641;HTU21D;62201;49.966;8.342;2024-01-07T01:56:34;4.94;104.80
61641;HTU21D;62201;49.966;8.342;2024-01-07T01:59:00;4.95;105.21
61641;HTU21D;62201;49.966;8.342;2024-01-07T02:01:25;4.95;104.84
61641;HTU21D;62201;49.966;8.342;2024-01-07T02:03:51;4.92;104.92
61641;HTU21D;62201;49.966;8.342;2024-01-07T02:06:20;4.95;105.19
61641;HTU21D;62201;49.966;8.342;2024-01-07T02:08:46;4.93;105.01
61641;HTU21D;62201;49.966;8.342;2024-01-07T02:11:29;4.89;104.78
61641;HTU21D;62201;49.966;8.342;2024-01-07T02:13:54;4.91;105.29
61641;HTU21D;62201;49.966;8.342;2024-01-07T02:16:20;4.89;104.86
61641;HTU21D;62201;49.966;8.342;2024-01-07T02:18:45;4.88;105.41
61641;HTU21D;62201;49.966;8.342;2024-01-07T02:21:13;4.88;105.21
61641;HTU21D;62201;49.966;8.342;2024-01-07T02:23:38;4.88;105.00
61641;HTU21D;62201;49.966;8.342;2024-01-07T02:26:04;4.87;105.08
61641;HTU21D;62201;49.966;8.342;2024-01-07T02:28:30;4.86;105.37
61641;HTU21D;62201;49.966;8.342;2024-01-07T02:30:56;4.89;105.12
61641;HTU21D;62201;49.966;8.342;2024-01-07T02:33:21;4.88;105.22
61641;HTU21D;62201;49.966;8.342;2024-01-07T02:35:46;4.88;105.05
61641;HTU21D;62201;49.966;8.342;2024-01-07T02:38:12;4.88;105.02
61641;HTU21D;62201;49.966;8.342;2024-01-07T02:40:37;4.90;105.02
61641;HTU21D;62201;49.966;8.342;2024-01-07T02:43:03;4.88;104.76
61641;HTU21D;62201;49.966;8.342;2024-01-07T02:45:28;4.87;104.66
61641;HTU21D;62201;49.966;8.342;2024-01-07T02:47:54;4.86;104.76
61641;HTU21D;62201;49.966;8.342;2024-01-07T02:50:19;4.82;104.67
61641;HTU21D;62201;49.966;8.342;2024-01-07T02:52:44;4.84;104.44
61641;HTU21D;62201;49.966;8.342;2024-01-07T02:55:10;4.84;104.63
61641;HTU21D;62201;49.966;8.342;2024-01-07T02:57:35;4.83;104.40
61641;HTU21D;62201;49.966;8.342;2024-01-07T03:00:01;4.82;104.47
61641;HTU21D;62201;49.966;8.342;2024-01-07T03:02:26;4.83;104.69
61641;HTU21D;62201;49.966;8.342;2024-01-07T03:04:51;4.83;104.73
61641;HTU21D;62201;49.966;8.342;2024-01-07T03:07:17;4.82;104.21
61641;HTU21D;62201;49.966;8.342;2024-01-07T03:09:42;4.82;104.48
61641;HTU21D;62201;49.966;8.342;2024-01-07T03:12:08;4.83;104.40
61641;HTU21D;62201;49.966;8.342;2024-01-07T03:14:33;4.84;104.44
61641;HTU21D;62201;49.966;8.342;2024-01-07T03:16:58;4.83;104.66
61641;HTU21D;62201;49.966;8.342;2024-01-07T03:19:24;4.82;104.53
61641;HTU21D;62201;49.966;8.342;2024-01-07T03:21:50;4.81;104.73
61641;HTU21D;62201;49.966;8.342;2024-01-07T03:24:15;4.80;104.86
61641;HTU21D;62201;49.966;8.342;2024-01-07T03:26:40;4.81;104.77
61641;HTU21D;62201;49.966;8.342;2024-01-07T03:29:06;4.80;104.88
61641;HTU21D;62201;49.966;8.342;2024-01-07T03:31:31;4.79;104.66
61641;HTU21D;62201;49.966;8.342;2024-01-07T03:33:57;4.79;104.79
61641;HTU21D;62201;49.966;8.342;2024-01-07T03:36:22;4.78;104.60
61641;HTU21D;62201;49.966;8.342;2024-01-07T03:38:48;4.80;104.71
61641;HTU21D;62201;49.966;8.342;2024-01-07T03:41:17;4.77;104.69
61641;HTU21D;62201;49.966;8.342;2024-01-07T03:43:46;4.80;105.11
61641;HTU21D;62201;49.966;8.342;2024-01-07T03:46:12;4.79;105.25
61641;HTU21D;62201;49.966;8.342;2024-01-07T03:48:38;4.77;105.07
61641;HTU21D;62201;49.966;8.342;2024-01-07T03:51:03;4.75;105.28
61641;HTU21D;62201;49.966;8.342;2024-01-07T03:53:28;4.74;105.24
61641;HTU21D;62201;49.966;8.342;2024-01-07T03:55:54;4.74;105.42
61641;HTU21D;62201;49.966;8.342;2024-01-07T03:58:19;4.71;105.62
61641;HTU21D;62201;49.966;8.342;2024-01-07T04:00:45;4.72;105.65
61641;HTU21D;62201;49.966;8.342;2024-01-07T04:03:10;4.69;105.82
61641;HTU21D;62201;49.966;8.342;2024-01-07T04:05:35;4.69;105.89
61641;HTU21D;62201;49.966;8.342;2024-01-07T04:08:02;4.68;105.79
61641;HTU21D;62201;49.966;8.342;2024-01-07T04:10:27;4.67;105.74
61641;HTU21D;62201;49.966;8.342;2024-01-07T04:12:52;4.68;105.87
61641;HTU21D;62201;49.966;8.342;2024-01-07T04:15:18;4.69;106.03
61641;HTU21D;62201;49.966;8.342;2024-01-07T04:17:43;4.67;105.72
61641;HTU21D;62201;49.966;8.342;2024-01-07T04:20:12;4.68;105.78
61641;HTU21D;62201;49.966;8.342;2024-01-07T04:22:38;4.67;105.92
61641;HTU21D;62201;49.966;8.342;2024-01-07T04:25:04;4.66;105.82
61641;HTU21D;62201;49.966;8.342;2024-01-07T04:27:36;4.65;105.90
61641;HTU21D;62201;49.966;8.342;2024-01-07T04:30:02;4.67;106.17
61641;HTU21D;62201;49.966;8.342;2024-01-07T04:32:28;4.68;106.13
61641;HTU21D;62201;49.966;8.342;2024-01-07T04:34:54;4.69;106.34
61641;HTU21D;62201;49.966;8.342;2024-01-07T04:37:19;4.67;106.35
61641;HTU21D;62201;49.966;8.342;2024-01-07T04:39:44;4.67;106.59
61641;HTU21D;62201;49.966;8.342;2024-01-07T04:42:10;4.67;106.83
61641;HTU21D;62201;49.966;8.342;2024-01-07T04:44:35;4.64;107.45
61641;HTU21D;62201;49.966;8.342;2024-01-07T04:47:00;4.62;108.85
61641;HTU21D;62201;49.966;8.342;2024-01-07T04:49:26;4.58;109.96
61641;HTU21D;62201;49.966;8.342;2024-01-07T04:51:51;4.54;110.53
61641;HTU21D;62201;49.966;8.342;2024-01-07T04:54:16;4.50;111.58
61641;HTU21D;62201;49.966;8.342;2024-01-07T04:56:42;4.46;110.33
61641;HTU21D;62201;49.966;8.342;2024-01-07T04:59:07;4.47;111.78
61641;HTU21D;62201;49.966;8.342;2024-01-07T05:01:33;4.43;112.89
61641;HTU21D;62201;49.966;8.342;2024-01-07T05:03:58;4.43;114.06
61641;HTU21D;62201;49.966;8.342;2024-01-07T05:06:24;4.37;113.35
61641;HTU21D;62201;49.966;8.342;2024-01-07T05:08:49;4.38;112.71
61641;HTU21D;62201;49.966;8.342;2024-01-07T05:11:15;4.41;112.14
61641;HTU21D;62201;49.966;8.342;2024-01-07T05:13:42;4.43;112.26
61641;HTU21D;62201;49.966;8.342;2024-01-07T05:16:07;4.45;111.49
61641;HTU21D;62201;49.966;8.342;2024-01-07T05:18:33;4.48;111.94
61641;HTU21D;62201;49.966;8.342;2024-01-07T05:20:58;4.48;111.68
61641;HTU21D;62201;49.966;8.342;2024-01-07T05:23:23;4.51;111.60
61641;HTU21D;62201;49.966;8.342;2024-01-07T05:25:49;4.53;112.02
61641;HTU21D;62201;49.966;8.342;2024-01-07T05:28:14;4.54;110.60
61641;HTU21D;62201;49.966;8.342;2024-01-07T05:30:41;4.54;110.03
61641;HTU21D;62201;49.966;8.342;2024-01-07T05:33:06;4.53;111.42
61641;HTU21D;62201;49.966;8.342;2024-01-07T05:35:31;4.56;111.00
61641;HTU21D;62201;49.966;8.342;2024-01-07T05:37:57;4.57;111.16
61641;HTU21D;62201;49.966;8.342;2024-01-07T05:40:23;4.57;111.11
61641;HTU21D;62201;49.966;8.342;2024-01-07T05:42:48;4.56;110.42
61641;HTU21D;62201;49.966;8.342;2024-01-07T05:45:13;4.58;110.58
61641;HTU21D;62201;49.966;8.342;2024-01-07T05:47:39;4.58;110.94
61641;HTU21D;62201;49.966;8.342;2024-01-07T05:50:06;4.61;110.07
61641;HTU21D;62201;49.966;8.342;2024-01-07T05:52:32;4.64;110.17
61641;HTU21D;62201;49.966;8.342;2024-01-07T05:54:57;4.64;109.45
61641;HTU21D;62201;49.966;8.342;2024-01-07T05:57:22;4.66;109.87
61641;HTU21D;62201;49.966;8.342;2024-01-07T05:59:48;4.66;109.25
61641;HTU21D;62201;49.966;8.342;2024-01-07T06:02:15;4.67;109.12
61641;HTU21D;62201;49.966;8.342;2024-01-07T06:04:41;4.67;108.80
61641;HTU21D;62201;49.966;8.342;2024-01-07T06:07:07;4.66;109.11
61641;HTU21D;62201;49.966;8.342;2024-01-07T06:09:32;4.69;109.52
61641;HTU21D;62201;49.966;8.342;2024-01-07T06:11:58;4.71;109.55
61641;HTU21D;62201;49.966;8.342;2024-01-07T06:14:23;4.71;109.28
61641;HTU21D;62201;49.966;8.342;2024-01-07T06:16:48;4.68;109.80
61641;HTU21D;62201;49.966;8.342;2024-01-07T06:19:16;4.71;109.75
61641;HTU21D;62201;49.966;8.342;2024-01-07T06:21:41;4.68;109.32
61641;HTU21D;62201;49.966;8.342;2024-01-07T06:24:10;4.71;108.64
61641;HTU21D;62201;49.966;8.342;2024-01-07T06:26:35;4.72;109.38
61641;HTU21D;62201;49.966;8.342;2024-01-07T06:29:01;4.73;110.23
61641;HTU21D;62201;49.966;8.342;2024-01-07T06:31:27;4.73;109.92
61641;HTU21D;62201;49.966;8.342;2024-01-07T06:33:52;4.73;109.64
61641;HTU21D;62201;49.966;8.342;2024-01-07T06:36:18;4.74;108.19
61641;HTU21D;62201;49.966;8.342;2024-01-07T06:38:43;4.76;108.29
61641;HTU21D;62201;49.966;8.342;2024-01-07T06:41:12;4.78;107.33
61641;HTU21D;62201;49.966;8.342;2024-01-07T06:43:38;4.77;106.72
61641;HTU21D;62201;49.966;8.342;2024-01-07T06:46:03;4.74;106.23
61641;HTU21D;62201;49.966;8.342;2024-01-07T06:48:29;4.67;107.13
61641;HTU21D;62201;49.966;8.342;2024-01-07T06:50:55;4.62;106.98
61641;HTU21D;62201;49.966;8.342;2024-01-07T06:53:20;4.59;106.15
61641;HTU21D;62201;49.966;8.342;2024-01-07T06:55:46;4.57;107.32
61641;HTU21D;62201;49.966;8.342;2024-01-07T06:58:11;4.57;107.46
61641;HTU21D;62201;49.966;8.342;2024-01-07T07:00:37;4.52;106.86
61641;HTU21D;62201;49.966;8.342;2024-01-07T07:03:02;4.51;106.25
61641;HTU21D;62201;49.966;8.342;2024-01-07T07:05:27;4.52;106.13
61641;HTU21D;62201;49.966;8.342;2024-01-07T07:07:53;4.51;106.53
61641;HTU21D;62201;49.966;8.342;2024-01-07T07:10:18;4.51;107.62
61641;HTU21D;62201;49.966;8.342;2024-01-07T07:12:44;4.50;106.09
61641;HTU21D;62201;49.966;8.342;2024-01-07T07:15:09;4.48;105.11
61641;HTU21D;62201;49.966;8.342;2024-01-07T07:17:40;4.47;103.28
61641;HTU21D;62201;49.966;8.342;2024-01-07T07:20:06;4.43;102.41
61641;HTU21D;62201;49.966;8.342;2024-01-07T07:22:31;4.41;102.07
61641;HTU21D;62201;49.966;8.342;2024-01-07T07:24:57;4.38;103.02
61641;HTU21D;62201;49.966;8.342;2024-01-07T07:27:22;4.35;103.26
61641;HTU21D;62201;49.966;8.342;2024-01-07T07:29:47;4.31;102.67
61641;HTU21D;62201;49.966;8.342;2024-01-07T07:32:13;4.26;101.87
61641;HTU21D;62201;49.966;8.342;2024-01-07T07:34:38;4.21;102.30
61641;HTU21D;62201;49.966;8.342;2024-01-07T07:37:04;4.16;102.88
61641;HTU21D;62201;49.966;8.342;2024-01-07T07:39:29;4.14;102.77
61641;HTU21D;62201;49.966;8.342;2024-01-07T07:41:55;4.12;101.93
61641;HTU21D;62201;49.966;8.342;2024-01-07T07:44:20;4.12;102.27
61641;HTU21D;62201;49.966;8.342;2024-01-07T07:46:45;4.09;102.78
61641;HTU21D;62201;49.966;8.342;2024-01-07T07:49:11;4.07;102.10
61641;HTU21D;62201;49.966;8.342;2024-01-07T07:51:36;4.03;102.54
61641;HTU21D;62201;49.966;8.342;2024-01-07T07:54:02;4.03;102.56
61641;HTU21D;62201;49.966;8.342;2024-01-07T07:56:28;4.00;102.68
61641;HTU21D;62201;49.966;8.342;2024-01-07T07:58:54;4.00;103.18
61641;HTU21D;62201;49.966;8.342;2024-01-07T08:01:19;3.98;103.13
61641;HTU21D;62201;49.966;8.342;2024-01-07T08:03:44;3.99;103.94
61641;HTU21D;62201;49.966;8.342;2024-01-07T08:06:10;3.98;103.77
61641;HTU21D;62201;49.966;8.342;2024-01-07T08:08:35;3.95;103.50
61641;HTU21D;62201;49.966;8.342;2024-01-07T08:11:00;3.98;103.52
61641;HTU21D;62201;49.966;8.342;2024-01-07T08:13:26;4.00;103.99
61641;HTU21D;62201;49.966;8.342;2024-01-07T08:15:52;4.00;103.33
61641;HTU21D;62201;49.966;8.342;2024-01-07T08:18:17;4.03;103.34
61641;HTU21D;62201;49.966;8.342;2024-01-07T08:20:42;4.01;103.03
61641;HTU21D;62201;49.966;8.342;2024-01-07T08:23:08;4.03;103.12
61641;HTU21D;62201;49.966;8.342;2024-01-07T08:25:33;4.00;102.52
61641;HTU21D;62201;49.966;8.342;2024-01-07T08:27:59;4.03;102.47
61641;HTU21D;62201;49.966;8.342;2024-01-07T08:30:24;4.00;102.59
61641;HTU21D;62201;49.966;8.342;2024-01-07T08:32:50;3.98;102.02
61641;HTU21D;62201;49.966;8.342;2024-01-07T08:35:15;3.93;101.19
61641;HTU21D;62201;49.966;8.342;2024-01-07T08:37:40;3.98;101.89
61641;HTU21D;62201;49.966;8.342;2024-01-07T08:40:06;3.98;100.99
61641;HTU21D;62201;49.966;8.342;2024-01-07T08:42:35;3.92;100.48
61641;HTU21D;62201;49.966;8.342;2024-01-07T08:45:00;4.00;101.34
61641;HTU21D;62201;49.966;8.342;2024-01-07T08:47:26;4.01;100.65
61641;HTU21D;62201;49.966;8.342;2024-01-07T08:49:51;3.98;101.04
61641;HTU21D;62201;49.966;8.342;2024-01-07T08:52:19;4.00;102.41
61641;HTU21D;62201;49.966;8.342;2024-01-07T08:54:44;3.98;100.69
61641;HTU21D;62201;49.966;8.342;2024-01-07T08:57:10;3.97;101.09
61641;HTU21D;62201;49.966;8.342;2024-01-07T08:59:35;4.05;101.38
61641;HTU21D;62201;49.966;8.342;2024-01-07T09:02:01;4.03;100.90
61641;HTU21D;62201;49.966;8.342;2024-01-07T09:04:27;3.95;99.80
61641;HTU21D;62201;49.966;8.342;2024-01-07T09:06:53;4.03;101.38
61641;HTU21D;62201;49.966;8.342;2024-01-07T09:09:18;3.97;99.27
61641;HTU21D;62201;49.966;8.342;2024-01-07T09:11:43;3.93;99.36
61641;HTU21D;62201;49.966;8.342;2024-01-07T09:14:09;3.95;99.59
61641;HTU21D;62201;49.966;8.342;2024-01-07T09:16:34;4.00;99.40
61641;HTU21D;62201;49.966;8.342;2024-01-07T09:19:00;3.88;99.48
61641;HTU21D;62201;49.966;8.342;2024-01-07T09:21:25;3.93;99.19
61641;HTU21D;62201;49.966;8.342;2024-01-07T09:23:51;3.92;98.71
61641;HTU21D;62201;49.966;8.342;2024-01-07T09:26:16;4.12;97.82
61641;HTU21D;62201;49.966;8.342;2024-01-07T09:28:41;3.93;96.13
61641;HTU21D;62201;49.966;8.342;2024-01-07T09:31:08;3.87;96.63
61641;HTU21D;62201;49.966;8.342;2024-01-07T09:33:33;4.03;96.69
61641;HTU21D;62201;49.966;8.342;2024-01-07T09:35:59;4.02;96.70
61641;HTU21D;62201;49.966;8.342;2024-01-07T09:38:24;4.00;97.14
61641;HTU21D;62201;49.966;8.342;2024-01-07T09:40:51;3.92;96.71
61641;HTU21D;62201;49.966;8.342;2024-01-07T09:43:16;4.03;97.28
61641;HTU21D;62201;49.966;8.342;2024-01-07T09:45:47;3.92;96.33
61641;HTU21D;62201;49.966;8.342;2024-01-07T09:48:14;3.95;96.08
61641;HTU21D;62201;49.966;8.342;2024-01-07T09:50:40;3.85;95.21
61641;HTU21D;62201;49.966;8.342;2024-01-07T09:53:07;3.92;94.98
61641;HTU21D;62201;49.966;8.342;2024-01-07T09:56:00;3.80;94.93
61641;HTU21D;62201;49.966;8.342;2024-01-07T09:58:28;3.85;95.31
61641;HTU21D;62201;49.966;8.342;2024-01-07T10:00:54;3.74;94.65
61641;HTU21D;62201;49.966;8.342;2024-01-07T10:03:19;3.79;95.10
61641;HTU21D;62201;49.966;8.342;2024-01-07T10:05:45;3.89;95.17
61641;HTU21D;62201;49.966;8.342;2024-01-07T10:08:10;3.89;95.20
61641;HTU21D;62201;49.966;8.342;2024-01-07T10:10:35;4.01;94.74
61641;HTU21D;62201;49.966;8.342;2024-01-07T10:13:01;3.92;94.53
61641;HTU21D;62201;49.966;8.342;2024-01-07T10:15:27;3.97;94.67
61641;HTU21D;62201;49.966;8.342;2024-01-07T10:18:03;3.89;94.50
61641;HTU21D;62201;49.966;8.342;2024-01-07T10:20:28;4.01;94.56
61641;HTU21D;62201;49.966;8.342;2024-01-07T10:22:54;3.82;93.13
61641;HTU21D;62201;49.966;8.342;2024-01-07T10:25:19;3.71;92.82
61641;HTU21D;62201;49.966;8.342;2024-01-07T10:27:44;3.85;92.68
61641;HTU21D;62201;49.966;8.342;2024-01-07T10:30:10;3.77;92.60
61641;HTU21D;62201;49.966;8.342;2024-01-07T10:32:36;3.75;93.45
61641;HTU21D;62201;49.966;8.342;2024-01-07T10:35:03;3.86;92.55
61641;HTU21D;62201;49.966;8.342;2024-01-07T10:37:30;3.92;92.27
61641;HTU21D;62201;49.966;8.342;2024-01-07T10:39:58;3.79;93.02
61641;HTU21D;62201;49.966;8.342;2024-01-07T10:42:31;3.83;93.05
61641;HTU21D;62201;49.966;8.342;2024-01-07T10:44:58;3.88;92.63
61641;HTU21D;62201;49.966;8.342;2024-01-07T10:47:30;3.97;92.33
61641;HTU21D;62201;49.966;8.342;2024-01-07T10:49:57;3.78;93.14
61641;HTU21D;62201;49.966;8.342;2024-01-07T10:52:24;4.04;93.59
61641;HTU21D;62201;49.966;8.342;2024-01-07T10:54:52;3.86;93.31
61641;HTU21D;62201;49.966;8.342;2024-01-07T10:57:27;4.04;92.88
61641;HTU21D;62201;49.966;8.342;2024-01-07T10:59:56;3.85;92.00
61641;HTU21D;62201;49.966;8.342;2024-01-07T11:02:23;3.84;91.53
61641;HTU21D;62201;49.966;8.342;2024-01-07T11:05:20;3.78;91.38
61641;HTU21D;62201;49.966;8.342;2024-01-07T11:07:56;3.77;91.40
61641;HTU21D;62201;49.966;8.342;2024-01-07T11:10:29;3.73;91.58
61641;HTU21D;62201;49.966;8.342;2024-01-07T11:12:57;3.84;90.78
61641;HTU21D;62201;49.966;8.342;2024-01-07T11:18:21;3.78;92.05
61641;HTU21D;62201;49.966;8.342;2024-01-07T11:20:47;3.72;91.46
61641;HTU21D;62201;49.966;8.342;2024-01-07T11:23:29;3.67;91.82
61641;HTU21D;62201;49.966;8.342;2024-01-07T11:25:59;3.64;91.15
61641;HTU21D;62201;49.966;8.342;2024-01-07T11:31:18;3.59;90.98
61641;HTU21D;62201;49.966;8.342;2024-01-07T11:33:45;3.65;91.56
61641;HTU21D;62201;49.966;8.342;2024-01-07T11:36:15;3.70;90.35
61641;HTU21D;62201;49.966;8.342;2024-01-07T11:38:44;3.74;90.57
61641;HTU21D;62201;49.966;8.342;2024-01-07T11:41:14;3.60;89.99
61641;HTU21D;62201;49.966;8.342;2024-01-07T11:46:19;3.72;89.79
61641;HTU21D;62201;49.966;8.342;2024-01-07T11:48:45;3.82;89.26
61641;HTU21D;62201;49.966;8.342;2024-01-07T11:51:11;3.61;90.59
61641;HTU21D;62201;49.966;8.342;2024-01-07T11:53:37;3.54;90.16
61641;HTU21D;62201;49.966;8.342;2024-01-07T11:56:02;3.52;90.41
61641;HTU21D;62201;49.966;8.342;2024-01-07T11:58:28;3.56;89.70
61641;HTU21D;62201;49.966;8.342;2024-01-07T12:00:53;3.54;89.96
61641;HTU21D;62201;49.966;8.342;2024-01-07T12:03:18;3.45;90.02
61641;HTU21D;62201;49.966;8.342;2024-01-07T12:05:44;3.54;89.86
61641;HTU21D;62201;49.966;8.342;2024-01-07T12:08:10;3.47;89.66
61641;HTU21D;62201;49.966;8.342;2024-01-07T12:10:35;3.42;89.00
61641;HTU21D;62201;49.966;8.342;2024-01-07T12:13:01;3.54;89.25
61641;HTU21D;62201;49.966;8.342;2024-01-07T12:15:28;3.53;89.45
61641;HTU21D;62201;49.966;8.342;2024-01-07T12:17:58;3.52;88.94
61641;HTU21D;62201;49.966;8.342;2024-01-07T12:20:26;3.57;89.09
61641;HTU21D;62201;49.966;8.342;2024-01-07T12:22:52;3.55;89.13
61641;HTU21D;62201;49.966;8.342;2024-01-07T12:25:23;3.53;89.50
61641;HTU21D;62201;49.966;8.342;2024-01-07T12:27:50;3.59;89.02
61641;HTU21D;62201;49.966;8.342;2024-01-07T12:30:18;3.57;89.04
61641;HTU21D;62201;49.966;8.342;2024-01-07T12:32:44;3.58;89.45
61641;HTU21D;62201;49.966;8.342;2024-01-07T12:35:10;3.74;89.00
61641;HTU21D;62201;49.966;8.342;2024-01-07T12:37:37;3.70;89.11
61641;HTU21D;62201;49.966;8.342;2024-01-07T12:40:02;3.42;89.25
61641;HTU21D;62201;49.966;8.342;2024-01-07T12:42:28;3.45;89.37
61641;HTU21D;62201;49.966;8.342;2024-01-07T12:44:53;3.80;88.16
61641;HTU21D;62201;49.966;8.342;2024-01-07T12:47:19;3.85;88.09
61641;HTU21D;62201;49.966;8.342;2024-01-07T12:49:44;3.83;88.31
61641;HTU21D;62201;49.966;8.342;2024-01-07T12:52:10;3.73;87.43
61641;HTU21D;62201;49.966;8.342;2024-01-07T12:54:36;3.64;87.41
61641;HTU21D;62201;49.966;8.342;2024-01-07T12:57:02;3.45;87.16
61641;HTU21D;62201;49.966;8.342;2024-01-07T12:59:27;3.64;87.12
61641;HTU21D;62201;49.966;8.342;2024-01-07T13:01:52;3.41;87.97
61641;HTU21D;62201;49.966;8.342;2024-01-07T13:04:18;3.27;88.37
61641;HTU21D;62201;49.966;8.342;2024-01-07T13:06:44;3.13;88.45
61641;HTU21D;62201;49.966;8.342;2024-01-07T13:09:10;3.16;88.80
61641;HTU21D;62201;49.966;8.342;2024-01-07T13:11:35;3.18;88.90
61641;HTU21D;62201;49.966;8.342;2024-01-07T13:14:01;3.08;87.99
61641;HTU21D;62201;49.966;8.342;2024-01-07T13:16:27;3.00;87.90
61641;HTU21D;62201;49.966;8.342;2024-01-07T13:18:53;2.93;88.44
61641;HTU21D;62201;49.966;8.342;2024-01-07T13:21:19;2.99;88.04
61641;HTU21D;62201;49.966;8.342;2024-01-07T13:23:45;2.97;88.36
61641;HTU21D;62201;49.966;8.342;2024-01-07T13:26:11;2.95;88.21
61641;HTU21D;62201;49.966;8.342;2024-01-07T13:28:36;2.89;88.52
61641;HTU21D;62201;49.966;8.342;2024-01-07T13:31:01;2.79;88.08
61641;HTU21D;62201;49.966;8.342;2024-01-07T13:33:28;2.94;87.64
61641;HTU21D;62201;49.966;8.342;2024-01-07T13:35:54;2.94;87.33
61641;HTU21D;62201;49.966;8.342;2024-01-07T13:38:19;2.89;87.58
61641;HTU21D;62201;49.966;8.342;2024-01-07T13:40:45;2.84;87.44
61641;HTU21D;62201;49.966;8.342;2024-01-07T13:43:10;2.76;87.41
61641;HTU21D;62201;49.966;8.342;2024-01-07T13:45:36;2.75;86.91
61641;HTU21D;62201;49.966;8.342;2024-01-07T13:48:01;2.86;87.03
61641;HTU21D;62201;49.966;8.342;2024-01-07T13:50:26;2.74;86.96
61641;HTU21D;62201;49.966;8.342;2024-01-07T13:52:52;2.56;86.70
61641;HTU21D;62201;49.966;8.342;2024-01-07T13:55:18;2.52;87.03
61641;HTU21D;62201;49.966;8.342;2024-01-07T13:57:43;2.70;87.34
61641;HTU21D;62201;49.966;8.342;2024-01-07T14:00:09;2.69;86.90
61641;HTU21D;62201;49.966;8.342;2024-01-07T14:02:37;2.62;86.68
61641;HTU21D;62201;49.966;8.342;2024-01-07T14:05:04;2.58;87.51
61641;HTU21D;62201;49.966;8.342;2024-01-07T14:07:32;2.59;87.56
61641;HTU21D;62201;49.966;8.342;2024-01-07T14:09:58;2.57;86.61
61641;HTU21D;62201;49.966;8.342;2024-01-07T14:12:24;2.42;85.56
61641;HTU21D;62201;49.966;8.342;2024-01-07T14:14:49;2.42;85.70
61641;HTU21D;62201;49.966;8.342;2024-01-07T14:17:15;2.34;85.66
61641;HTU21D;62201;49.966;8.342;2024-01-07T14:19:41;2.36;85.87
61641;HTU21D;62201;49.966;8.342;2024-01-07T14:22:08;2.32;86.40
61641;HTU21D;62201;49.966;8.342;2024-01-07T14:24:34;2.30;86.35
61641;HTU21D;62201;49.966;8.342;2024-01-07T14:27:00;2.35;86.60
61641;HTU21D;62201;49.966;8.342;2024-01-07T14:29:25;2.27;86.42
61641;HTU21D;62201;49.966;8.342;2024-01-07T14:31:50;2.20;86.03
61641;HTU21D;62201;49.966;8.342;2024-01-07T14:34:16;2.09;86.20
61641;HTU21D;62201;49.966;8.342;2024-01-07T14:36:41;2.21;86.16
61641;HTU21D;62201;49.966;8.342;2024-01-07T14:39:08;2.03;85.23
61641;HTU21D;62201;49.966;8.342;2024-01-07T14:41:35;1.94;85.96
61641;HTU21D;62201;49.966;8.342;2024-01-07T14:44:00;1.92;86.37
61641;HTU21D;62201;49.966;8.342;2024-01-07T14:46:26;1.91;86.38
61641;HTU21D;62201;49.966;8.342;2024-01-07T14:48:52;1.88;86.69
61641;HTU21D;62201;49.966;8.342;2024-01-07T14:51:17;1.92;86.73
61641;HTU21D;62201;49.966;8.342;2024-01-07T14:53:42;1.81;87.15
61641;HTU21D;62201;49.966;8.342;2024-01-07T14:56:08;1.81;87.22
61641;HTU21D;62201;49.966;8.342;2024-01-07T14:58:33;1.78;87.07
61641;HTU21D;62201;49.966;8.342;2024-01-07T15:00:59;1.77;87.09
61641;HTU21D;62201;49.966;8.342;2024-01-07T15:03:25;1.72;87.23
61641;HTU21D;62201;49.966;8.342;2024-01-07T15:05:51;1.71;87.03
61641;HTU21D;62201;49.966;8.342;2024-01-07T15:08:16;1.66;87.06
61641;HTU21D;62201;49.966;8.342;2024-01-07T15:10:42;1.67;86.70
61641;HTU21D;62201;49.966;8.342;2024-01-07T15:13:08;1.58;86.30
61641;HTU21D;62201;49.966;8.342;2024-01-07T15:15:34;1.49;85.81
61641;HTU21D;62201;49.966;8.342;2024-01-07T15:17:59;1.49;85.79
61641;HTU21D;62201;49.966;8.342;2024-01-07T15:20:28;1.40;85.35
61641;HTU21D;62201;49.966;8.342;2024-01-07T15:22:53;1.37;85.48